createdAt,value
2017-08-16T03:30:18.389Z,21.80
2017-08-16T03:32:46.034Z,21.80
2017-08-16T03:35:13.676Z,21.80
2017-08-16T03:37:41.736Z,21.70
2017-08-16T03:40:09.399Z,21.50
2017-08-16T03:42:37.018Z,21.60
2017-08-16T03:45:05.130Z,21.60
2017-08-16T03:47:32.785Z,21.70
2017-08-16T03:50:00.425Z,21.80
2017-08-16T03:52:28.518Z,21.70
2017-08-16T03:54:56.971Z,21.70
2017-08-16T03:57:24.632Z,21.70
2017-08-16T03:59:52.735Z,21.60
2017-08-16T04:02:21.157Z,21.20
2017-08-16T04:04:48.798Z,21.20
2017-08-16T04:07:16.866Z,20.90
2017-08-16T04:09:44.519Z,20.50
2017-08-16T04:12:12.132Z,20.40
2017-08-16T04:14:40.124Z,20.30
2017-08-16T04:17:07.757Z,20.40
2017-08-16T04:19:35.387Z,20.40
2017-08-16T04:22:03.385Z,20.60
2017-08-16T04:24:31.064Z,20.70
2017-08-16T04:26:58.708Z,21.00
2017-08-16T04:29:26.717Z,21.20
2017-08-16T04:31:54.358Z,21.40
2017-08-16T04:34:21.997Z,21.10
2017-08-16T04:36:50.091Z,21.20
2017-08-16T04:39:17.722Z,21.40
2017-08-16T04:41:45.361Z,21.50
2017-08-16T04:44:13.423Z,21.70
2017-08-16T04:46:41.029Z,21.70
2017-08-16T04:49:08.661Z,21.80
2017-08-16T04:51:36.801Z,21.90
2017-08-16T04:54:05.180Z,21.90
2017-08-16T04:56:32.890Z,21.90
2017-08-16T04:59:00.909Z,21.90
2017-08-16T05:01:28.562Z,21.90
2017-08-16T05:03:56.201Z,21.90
2017-08-16T05:06:24.224Z,21.90
2017-08-16T05:08:51.872Z,22.00
2017-08-16T05:11:20.281Z,21.90
2017-08-16T05:13:48.273Z,21.90
2017-08-16T05:16:15.903Z,21.90
2017-08-16T05:18:43.550Z,21.80
2017-08-16T05:21:12.336Z,21.80
2017-08-16T05:23:40.751Z,21.70
2017-08-16T05:26:08.404Z,21.70
2017-08-16T05:28:36.441Z,21.60
2017-08-16T05:31:04.872Z,21.60
2017-08-16T05:33:32.497Z,21.60
2017-08-16T05:36:00.617Z,21.70
2017-08-16T05:38:28.280Z,21.60
2017-08-16T05:40:55.914Z,21.50
2017-08-16T05:43:23.976Z,21.00
2017-08-16T05:45:51.636Z,20.70
2017-08-16T05:48:19.258Z,20.70
2017-08-16T05:50:47.293Z,20.60
2017-08-16T05:53:14.944Z,20.40
2017-08-16T05:55:42.632Z,20.30
2017-08-16T05:58:10.759Z,20.20
2017-08-16T06:00:38.424Z,20.20
2017-08-16T06:03:06.101Z,20.20
2017-08-16T06:05:34.119Z,20.30
2017-08-16T06:08:01.772Z,20.20
2017-08-16T06:10:29.429Z,20.20
2017-08-16T06:12:57.430Z,20.20
2017-08-16T06:15:25.109Z,20.10
2017-08-16T06:17:52.878Z,20.10
2017-08-16T06:20:20.916Z,20.30
2017-08-16T06:22:48.561Z,20.50
2017-08-16T06:25:16.238Z,20.60
2017-08-16T06:27:44.249Z,20.80
2017-08-16T06:30:11.989Z,21.00
2017-08-16T06:32:39.626Z,21.10
2017-08-16T06:35:07.613Z,21.10
2017-08-16T06:37:36.013Z,20.80
2017-08-16T06:40:04.546Z,20.80
2017-08-16T06:42:32.663Z,20.70
2017-08-16T06:45:00.295Z,20.50
2017-08-16T06:47:27.927Z,20.30
2017-08-16T06:49:55.926Z,20.30
2017-08-16T06:52:23.567Z,20.40
2017-08-16T06:54:51.229Z,20.70
2017-08-16T06:57:19.244Z,21.10
2017-08-16T06:59:46.894Z,21.50
2017-08-16T07:02:15.301Z,21.90
2017-08-16T07:04:43.367Z,21.90
2017-08-16T07:07:11.006Z,22.10
2017-08-16T07:09:39.421Z,22.30
2017-08-16T07:12:07.465Z,22.30
2017-08-16T07:14:35.867Z,22.40
2017-08-16T07:17:03.531Z,22.40
2017-08-16T07:19:31.522Z,22.40
2017-08-16T07:21:59.185Z,22.30
2017-08-16T07:24:26.813Z,22.40
2017-08-16T07:26:54.872Z,22.60
2017-08-16T07:29:23.386Z,22.90
2017-08-16T07:31:51.034Z,22.90
2017-08-16T07:34:19.054Z,22.80
2017-08-16T07:36:46.692Z,22.60
2017-08-16T07:39:14.340Z,22.60
2017-08-16T07:41:42.385Z,22.30
2017-08-16T07:44:10.036Z,22.20
2017-08-16T07:46:38.451Z,22.00
2017-08-16T07:49:06.613Z,22.00
2017-08-16T07:51:34.370Z,22.30
2017-08-16T07:54:02.014Z,22.60
2017-08-16T07:56:30.805Z,22.70
2017-08-16T07:58:59.224Z,22.70
2017-08-16T08:01:26.866Z,22.70
2017-08-16T08:03:54.944Z,22.90
2017-08-16T08:06:22.604Z,23.20
2017-08-16T08:08:50.396Z,23.50
2017-08-16T08:11:18.430Z,23.90
2017-08-16T08:13:46.970Z,24.10
2017-08-16T08:16:14.624Z,24.20
2017-08-16T08:18:42.733Z,23.80
2017-08-16T08:21:11.161Z,23.90
2017-08-16T08:23:38.815Z,23.90
2017-08-16T08:26:06.892Z,23.60
2017-08-16T08:28:34.643Z,23.90
2017-08-16T08:31:02.303Z,24.10
2017-08-16T08:33:30.578Z,24.10
2017-08-16T08:35:58.228Z,24.30
2017-08-16T08:38:25.886Z,25.10
2017-08-16T08:40:54.040Z,25.90
2017-08-16T08:43:22.490Z,26.60
2017-08-16T08:45:50.131Z,26.50
2017-08-16T08:48:18.181Z,26.40
2017-08-16T08:50:45.846Z,26.40
2017-08-16T08:53:13.499Z,27.50
2017-08-16T08:55:41.553Z,28.00
2017-08-16T08:58:09.207Z,27.40
2017-08-16T09:00:37.622Z,27.90
2017-08-16T09:03:05.841Z,27.80
2017-08-16T09:05:33.490Z,29.10
2017-08-16T09:08:01.212Z,29.80
2017-08-16T09:10:29.241Z,30.50
2017-08-16T09:12:56.905Z,31.20
2017-08-16T09:15:24.642Z,30.00
2017-08-16T09:17:52.790Z,31.20
2017-08-16T09:20:20.563Z,30.70
2017-08-16T09:22:48.202Z,29.20
2017-08-16T09:25:16.183Z,27.90
2017-08-16T09:27:43.823Z,27.30
2017-08-16T09:30:12.237Z,28.60
2017-08-16T09:32:40.266Z,28.60
2017-08-16T09:35:08.828Z,32.70
2017-08-16T09:37:37.245Z,31.20
2017-08-16T09:40:05.330Z,31.20
2017-08-16T09:42:33.002Z,31.90
2017-08-16T09:45:00.652Z,32.70
2017-08-16T09:47:28.724Z,34.90
2017-08-16T09:49:56.398Z,36.30
2017-08-16T09:52:24.258Z,34.70
2017-08-16T09:54:52.417Z,33.30
2017-08-16T09:57:20.216Z,32.80
2017-08-16T09:59:47.887Z,31.10
2017-08-16T10:02:15.915Z,29.40
2017-08-16T10:04:43.573Z,28.50
2017-08-16T10:07:11.229Z,27.60
2017-08-16T10:09:39.242Z,28.10
2017-08-16T10:12:06.867Z,32.60
2017-08-16T10:14:34.492Z,37.00
2017-08-16T10:17:02.576Z,37.40
2017-08-16T10:19:30.990Z,32.30
2017-08-16T10:21:58.733Z,32.20
2017-08-16T10:24:26.776Z,31.00
2017-08-16T10:26:54.432Z,30.90
2017-08-16T10:29:22.084Z,31.50
2017-08-16T10:31:50.177Z,34.50
2017-08-16T10:34:17.912Z,38.60
2017-08-16T10:36:45.606Z,41.90
2017-08-16T10:39:13.607Z,43.20
2017-08-16T10:41:41.262Z,43.50
2017-08-16T10:44:08.923Z,44.20
2017-08-16T10:46:36.946Z,45.20
2017-08-16T10:49:04.616Z,46.10
2017-08-16T10:51:32.282Z,45.80
2017-08-16T10:54:00.379Z,46.20
2017-08-16T10:56:28.792Z,40.30
2017-08-16T10:58:56.525Z,40.30
2017-08-16T11:01:24.591Z,38.40
2017-08-16T11:03:52.322Z,36.30
2017-08-16T11:06:19.961Z,34.30
2017-08-16T11:08:48.088Z,32.90
2017-08-16T11:11:16.519Z,31.10
2017-08-16T11:13:44.197Z,31.00
2017-08-16T11:16:12.197Z,33.50
2017-08-16T11:18:40.615Z,40.90
2017-08-16T11:21:08.262Z,40.80
2017-08-16T11:23:36.313Z,41.60
2017-08-16T11:26:04.771Z,44.30
2017-08-16T11:28:32.587Z,44.20
2017-08-16T11:31:00.643Z,42.50
2017-08-16T11:33:29.044Z,40.60
2017-08-16T11:35:56.815Z,40.60
2017-08-16T11:38:24.798Z,42.10
2017-08-16T11:40:52.448Z,42.90
2017-08-16T11:43:20.103Z,44.40
2017-08-16T11:45:48.140Z,45.40
2017-08-16T11:48:16.549Z,44.50
2017-08-16T11:50:44.208Z,44.50
2017-08-16T11:53:12.247Z,43.50
2017-08-16T11:55:40.683Z,40.50
2017-08-16T11:58:08.347Z,40.40
2017-08-16T12:00:36.375Z,38.30
2017-08-16T12:03:04.080Z,35.90
2017-08-16T12:05:31.771Z,33.90
2017-08-16T12:07:59.770Z,33.90
2017-08-16T12:10:27.410Z,34.20
2017-08-16T12:12:55.815Z,34.40
2017-08-16T12:15:23.865Z,34.40
2017-08-16T12:17:51.513Z,34.10
2017-08-16T12:20:19.216Z,34.30
2017-08-16T12:22:47.267Z,34.60
2017-08-16T12:25:15.664Z,34.20
2017-08-16T12:27:43.319Z,34.20
2017-08-16T12:30:11.381Z,34.00
2017-08-16T12:32:39.777Z,33.20
2017-08-16T12:35:07.401Z,33.10
2017-08-16T12:37:35.442Z,33.20
2017-08-16T12:40:03.096Z,33.30
2017-08-16T12:42:30.785Z,33.60
2017-08-16T12:44:59.622Z,33.90
2017-08-16T12:47:27.280Z,33.30
2017-08-16T12:49:54.925Z,33.00
2017-08-16T12:52:23.735Z,32.70
2017-08-16T12:54:51.381Z,32.70
2017-08-16T12:57:19.025Z,32.30
2017-08-16T12:59:47.044Z,32.20
2017-08-16T13:02:14.691Z,32.40
2017-08-16T13:04:42.345Z,32.60
2017-08-16T13:07:10.395Z,32.60
2017-08-16T13:09:38.829Z,31.40
2017-08-16T13:12:06.466Z,31.40
2017-08-16T13:14:34.530Z,31.80
2017-08-16T13:17:02.175Z,32.10
2017-08-16T13:19:30.595Z,31.70
2017-08-16T13:21:58.694Z,31.60
2017-08-16T13:24:26.366Z,31.40
2017-08-16T13:26:54.012Z,31.30
2017-08-16T13:29:22.138Z,31.20
2017-08-16T13:31:49.775Z,31.10
2017-08-16T13:34:18.191Z,30.70
2017-08-16T13:36:46.358Z,30.60
2017-08-16T13:39:14.077Z,30.50
2017-08-16T13:41:41.731Z,30.30
2017-08-16T13:44:09.743Z,30.30
2017-08-16T13:46:37.382Z,29.70
2017-08-16T13:49:05.812Z,30.00
2017-08-16T13:51:33.871Z,30.00
2017-08-16T13:54:01.511Z,30.40
2017-08-16T13:56:29.929Z,30.60
2017-08-16T13:58:58.100Z,30.60
2017-08-16T14:01:25.749Z,30.30
2017-08-16T14:03:53.394Z,30.10
2017-08-16T14:06:21.467Z,30.00
2017-08-16T14:08:49.118Z,30.10
2017-08-16T14:11:18.785Z,30.50
2017-08-16T14:13:46.793Z,30.40
2017-08-16T14:16:16.276Z,29.90
2017-08-16T14:18:43.928Z,29.90
2017-08-16T14:21:11.939Z,30.00
2017-08-16T14:23:40.288Z,30.00
2017-08-16T14:26:07.978Z,30.20
2017-08-16T14:28:36.148Z,30.10
2017-08-16T14:31:04.620Z,30.20
2017-08-16T14:33:32.280Z,30.10
2017-08-16T14:36:00.292Z,30.00
2017-08-16T14:38:27.978Z,29.70
2017-08-16T14:40:55.652Z,29.90
2017-08-16T14:43:23.663Z,29.70
2017-08-16T14:45:51.328Z,29.70
2017-08-16T14:48:19.048Z,29.60
2017-08-16T14:50:47.394Z,29.60
2017-08-16T14:53:15.035Z,29.60
2017-08-16T14:55:42.698Z,29.50
2017-08-16T14:58:10.761Z,29.40
2017-08-16T15:00:38.415Z,29.40
2017-08-16T15:03:06.088Z,29.30
2017-08-16T15:05:34.102Z,29.20
2017-08-16T15:08:01.787Z,29.20
2017-08-16T15:10:29.461Z,29.20
2017-08-16T15:12:58.373Z,29.10
2017-08-16T15:15:26.029Z,29.10
2017-08-16T15:17:53.702Z,29.00
2017-08-16T15:20:21.772Z,29.00
2017-08-16T15:22:49.441Z,29.10
2017-08-16T15:25:17.109Z,29.10
2017-08-16T15:27:45.134Z,29.00
2017-08-16T15:30:12.784Z,29.00
2017-08-16T15:32:40.425Z,28.60
2017-08-16T15:35:08.563Z,28.60
2017-08-16T15:37:36.217Z,28.60
2017-08-16T15:40:03.867Z,28.60
2017-08-16T15:42:32.669Z,28.80
2017-08-16T15:45:00.292Z,28.70
2017-08-16T15:47:27.955Z,28.80
2017-08-16T15:49:55.944Z,28.80
2017-08-16T15:52:24.394Z,29.00
2017-08-16T15:54:52.138Z,28.90
2017-08-16T15:57:20.190Z,28.90
2017-08-16T15:59:47.826Z,28.80
2017-08-16T16:02:16.250Z,29.00
2017-08-16T16:04:44.304Z,29.00
2017-08-16T16:07:11.955Z,29.10
2017-08-16T16:09:39.583Z,29.00
2017-08-16T16:12:07.689Z,29.00
2017-08-16T16:14:35.327Z,28.80
2017-08-16T16:17:03.770Z,28.70
2017-08-16T16:19:31.767Z,28.60
2017-08-16T16:21:59.426Z,28.70
2017-08-16T16:24:27.108Z,28.70
2017-08-16T16:26:55.182Z,28.70
2017-08-16T16:29:23.607Z,28.80
2017-08-16T16:31:51.258Z,28.70
2017-08-16T16:34:19.295Z,28.80
2017-08-16T16:36:47.701Z,28.40
2017-08-16T16:39:15.349Z,28.40
2017-08-16T16:41:43.375Z,28.40
2017-08-16T16:44:11.013Z,28.50
2017-08-16T16:46:38.675Z,28.50
2017-08-16T16:49:06.803Z,28.40
2017-08-16T16:51:34.463Z,28.30
2017-08-16T16:54:02.871Z,28.20
2017-08-16T16:56:30.934Z,28.20
2017-08-16T16:58:58.565Z,28.20
2017-08-16T17:01:26.214Z,28.00
2017-08-16T17:03:53.875Z,28.00
2017-08-16T17:06:21.526Z,28.10
2017-08-16T17:08:49.944Z,28.00
2017-08-16T17:11:17.595Z,27.90
2017-08-16T17:13:45.249Z,27.90
2017-08-16T17:16:12.917Z,28.00
2017-08-16T17:18:41.326Z,27.90
2017-08-16T17:21:09.073Z,27.90
2017-08-16T17:23:37.496Z,27.80
2017-08-16T17:26:05.527Z,27.80
2017-08-16T17:28:34.001Z,27.50
2017-08-16T17:31:01.659Z,27.50
2017-08-16T17:33:31.542Z,27.40
2017-08-16T17:35:59.193Z,27.30
2017-08-16T17:38:26.902Z,27.30
2017-08-16T17:40:55.700Z,27.50
2017-08-16T17:43:23.399Z,27.40
2017-08-16T17:45:51.068Z,27.30
2017-08-16T17:48:19.203Z,27.20
2017-08-16T17:50:46.847Z,27.10
2017-08-16T17:53:15.282Z,26.90
2017-08-16T17:55:43.303Z,26.90
2017-08-16T17:58:11.735Z,26.60
2017-08-16T18:00:39.394Z,26.60
2017-08-16T18:03:07.386Z,26.50
2017-08-16T18:05:35.107Z,26.30
2017-08-16T18:08:02.765Z,26.30
2017-08-16T18:10:30.814Z,26.10
2017-08-16T18:12:59.242Z,25.90
2017-08-16T18:15:26.884Z,25.90
2017-08-16T18:17:54.913Z,25.80
2017-08-16T18:20:23.350Z,25.70
2017-08-16T18:22:51.026Z,25.70
2017-08-16T18:25:19.048Z,25.70
2017-08-16T18:27:46.744Z,25.70
2017-08-16T18:30:14.412Z,25.70
2017-08-16T18:32:42.416Z,25.70
2017-08-16T18:35:10.098Z,25.60
2017-08-16T18:37:37.746Z,25.50
2017-08-16T18:40:06.654Z,25.30
2017-08-16T18:42:34.310Z,25.30
2017-08-16T18:45:01.977Z,25.20
2017-08-16T18:47:30.043Z,25.10
2017-08-16T18:49:58.477Z,25.10
2017-08-16T18:52:26.147Z,25.10
2017-08-16T18:54:54.192Z,25.10
2017-08-16T18:57:21.855Z,25.10
2017-08-16T18:59:49.522Z,25.10
2017-08-16T19:02:17.541Z,25.10
2017-08-16T19:04:45.815Z,25.00
2017-08-16T19:07:14.229Z,24.80
2017-08-16T19:09:42.370Z,24.70
2017-08-16T19:12:10.780Z,24.70
2017-08-16T19:14:38.457Z,24.60
2017-08-16T19:17:06.461Z,24.70
2017-08-16T19:19:34.119Z,24.60
2017-08-16T19:22:01.779Z,24.60
2017-08-16T19:24:29.765Z,24.50
2017-08-16T19:26:57.417Z,24.40
2017-08-16T19:29:25.067Z,24.50
2017-08-16T19:31:53.190Z,24.40
2017-08-16T19:34:20.918Z,24.40
2017-08-16T19:36:48.832Z,24.30
2017-08-16T19:39:16.929Z,24.30
2017-08-16T19:41:45.401Z,24.40
2017-08-16T19:44:19.994Z,24.50
2017-08-16T19:46:47.642Z,24.40
2017-08-16T19:49:16.080Z,24.20
2017-08-16T19:51:43.777Z,24.20
2017-08-16T19:54:12.216Z,24.10
2017-08-16T19:56:39.917Z,24.10
2017-08-16T19:59:10.336Z,24.00
2017-08-16T20:01:38.019Z,23.90
2017-08-16T20:04:07.357Z,23.70
2017-08-16T20:06:35.469Z,23.70
2017-08-16T20:09:03.136Z,23.60
2017-08-16T20:11:30.771Z,23.70
2017-08-16T20:13:58.457Z,23.70
2017-08-16T20:16:26.132Z,23.80
2017-08-16T20:18:54.601Z,23.80
2017-08-16T20:21:22.260Z,23.70
2017-08-16T20:23:49.943Z,23.70
2017-08-16T20:26:18.432Z,23.60
2017-08-16T20:28:46.523Z,23.60
2017-08-16T20:31:14.202Z,23.50
2017-08-16T20:33:41.862Z,23.40
2017-08-16T20:36:09.528Z,23.40
2017-08-16T20:38:37.207Z,23.40
2017-08-16T20:41:04.888Z,23.50
2017-08-16T20:43:32.543Z,23.70
2017-08-16T20:46:00.553Z,23.90
2017-08-16T20:48:28.225Z,24.00
2017-08-16T20:50:56.231Z,23.90
2017-08-16T21:06:25.072Z,22.80
2017-08-16T21:08:52.754Z,22.80
2017-08-16T21:13:54.799Z,23.30
2017-08-16T21:16:23.221Z,23.40
2017-08-16T21:18:50.933Z,23.40
2017-08-16T21:21:19.017Z,23.40
2017-08-16T21:23:46.803Z,23.40
2017-08-16T21:26:14.462Z,23.40
2017-08-16T21:28:42.446Z,23.30
2017-08-16T21:31:10.129Z,23.30
2017-08-16T21:33:37.786Z,23.30
2017-08-16T21:36:06.143Z,23.30
2017-08-16T21:38:33.826Z,23.30
2017-08-16T21:41:01.868Z,23.30
2017-08-16T21:43:29.922Z,23.20
2017-08-16T21:45:57.646Z,23.20
2017-08-16T21:48:25.292Z,23.20
2017-08-16T21:50:53.321Z,23.20
2017-08-16T21:53:20.960Z,23.10
2017-08-16T21:55:49.388Z,23.10
2017-08-16T21:58:17.434Z,23.00
2017-08-16T22:00:45.127Z,23.00
2017-08-16T22:03:12.932Z,22.90
2017-08-16T22:05:41.004Z,22.90
2017-08-16T22:08:08.647Z,22.90
2017-08-16T22:10:36.285Z,22.90
2017-08-16T22:13:04.266Z,22.80
2017-08-16T22:15:31.911Z,22.70
2017-08-16T22:17:59.607Z,22.80
2017-08-16T22:20:27.726Z,22.80
2017-08-16T22:22:55.360Z,22.80
2017-08-16T22:25:23.758Z,22.70
2017-08-16T22:27:51.753Z,22.70
